Terminal Aerodrome Forecast
Issued by NWS

Home | Current Version | Previous Version | Graphics & Text | Print | Product List | Glossary On
Versions: 1 2 3 4 5 6 7 8 9 10 11 12 13 14 15 16 17 18 19 20 21 22
000
FTUS43 KICT 172300
TAFRSL
TAF
KRSL 172331Z 1800/1824 08010KT P6SM SCT150
     FM180600 10010KT 5SM BR VCTS SCT007 BKN060CB
     FM181100 10008KT 3SM BR OVC005
     FM181600 12008KT P6SM BKN015
     FM181900 13011KT P6SM FEW040=

USA.gov is the U.S. government's official web portal to all federal, state and local government web resources and services.